createdAt,value
2023-09-11T12:49:38.109Z,1.60
2023-09-11T12:52:06.383Z,1.52
2023-09-11T12:54:33.968Z,1.38
2023-09-11T12:57:04.429Z,1.48
2023-09-11T12:59:34.174Z,1.48
2023-09-11T13:02:01.449Z,1.30
2023-09-11T13:04:28.690Z,1.35
2023-09-11T13:06:55.915Z,1.65
2023-09-11T13:09:23.954Z,1.42
2023-09-11T13:11:51.921Z,1.52
2023-09-11T13:14:19.585Z,1.58
2023-09-11T13:16:47.348Z,1.50
2023-09-11T13:19:15.337Z,1.30
2023-09-11T13:21:42.711Z,1.35
2023-09-11T13:24:10.307Z,1.88
2023-09-11T13:26:38.105Z,1.30
2023-09-11T13:29:05.347Z,2.00
2023-09-11T13:31:32.675Z,1.98
2023-09-11T13:34:00.157Z,1.60
2023-09-11T13:36:27.662Z,1.20
2023-09-11T13:38:59.233Z,1.42
2023-09-11T13:41:26.478Z,1.27
2023-09-11T13:43:53.764Z,1.40
2023-09-11T13:46:21.190Z,1.33
2023-09-11T13:48:48.516Z,1.40
2023-09-11T13:51:16.284Z,1.50
2023-09-11T13:53:43.621Z,1.42
2023-09-11T13:56:11.380Z,1.70
2023-09-11T13:58:38.857Z,1.33
2023-09-11T14:01:06.521Z,1.30
2023-09-11T14:03:35.762Z,1.42
2023-09-11T14:06:04.093Z,1.17
2023-09-11T14:08:32.773Z,1.10
2023-09-11T14:11:00.440Z,1.13
2023-09-11T14:13:27.635Z,1.25
2023-09-11T14:15:55.006Z,1.20
2023-09-11T14:18:23.731Z,1.40
2023-09-11T14:20:51.078Z,1.10
2023-09-11T14:23:18.408Z,1.45
2023-09-11T14:25:45.820Z,1.30
2023-09-11T14:28:13.022Z,1.40
2023-09-11T14:30:40.372Z,1.30
2023-09-11T14:33:07.622Z,1.38
2023-09-11T14:35:35.749Z,1.60
2023-09-11T14:38:03.166Z,1.25
2023-09-11T14:40:30.440Z,1.77
2023-09-11T14:42:57.730Z,1.70
2023-09-11T14:45:25.090Z,1.92
2023-09-11T14:47:52.675Z,1.70
2023-09-11T14:50:20.091Z,1.90
2023-09-11T14:52:47.533Z,1.67
2023-09-11T14:55:14.806Z,1.60
2023-09-11T14:57:42.025Z,1.95
2023-09-11T15:00:10.216Z,1.30
2023-09-11T15:02:37.569Z,1.63
2023-09-11T15:05:05.385Z,1.50
2023-09-11T15:07:32.699Z,1.58
2023-09-11T15:10:02.477Z,1.88
2023-09-11T15:12:29.810Z,2.05
2023-09-11T15:14:57.039Z,1.50
2023-09-11T15:17:24.277Z,1.33
2023-09-11T15:19:51.541Z,1.67
2023-09-11T15:22:18.908Z,1.67
2023-09-11T15:24:46.155Z,1.58
2023-09-11T15:27:14.218Z,1.70
2023-09-11T15:29:41.542Z,1.27
2023-09-11T15:32:12.665Z,1.65
2023-09-11T15:34:42.151Z,1.88
2023-09-11T15:37:14.944Z,1.58
2023-09-11T15:39:43.260Z,1.42
2023-09-11T15:42:10.800Z,1.60
2023-09-11T15:44:38.327Z,1.80
2023-09-11T15:47:05.846Z,1.80
2023-09-11T15:49:33.163Z,2.17
2023-09-11T15:52:04.835Z,1.52
2023-09-11T15:54:34.231Z,1.40
2023-09-11T15:57:01.889Z,1.40
2023-09-11T15:59:29.465Z,1.60
2023-09-11T16:01:57.062Z,2.15
2023-09-11T16:04:24.484Z,2.35
2023-09-11T16:06:51.801Z,1.52
2023-09-11T16:09:19.149Z,1.77
2023-09-11T16:11:50.617Z,2.42
2023-09-11T16:14:17.934Z,2.20
2023-09-11T16:16:45.756Z,1.50
2023-09-11T16:19:12.999Z,2.45
2023-09-11T16:21:41.377Z,1.73
2023-09-11T16:24:11.112Z,1.73
2023-09-11T16:26:38.526Z,1.65
2023-09-11T16:29:05.731Z,1.83
2023-09-11T16:31:33.113Z,2.13
2023-09-11T16:34:00.617Z,1.70
2023-09-11T16:36:28.041Z,2.47
2023-09-11T16:38:55.414Z,1.48
2023-09-11T16:41:22.801Z,1.75
2023-09-11T16:43:49.922Z,1.67
2023-09-11T16:46:19.128Z,2.08
2023-09-11T16:48:46.776Z,2.40
2023-09-11T16:51:14.486Z,1.70
2023-09-11T16:53:41.858Z,2.20
2023-09-11T16:56:09.102Z,1.67
2023-09-11T16:58:36.323Z,1.80
2023-09-11T17:01:08.304Z,2.25
2023-09-11T17:03:35.875Z,1.88
2023-09-11T17:06:04.814Z,1.70
2023-09-11T17:08:32.171Z,2.20
2023-09-11T17:10:59.972Z,1.88
2023-09-11T17:13:27.475Z,1.95
2023-09-11T17:15:54.761Z,1.75
2023-09-11T17:18:22.277Z,2.30
2023-09-11T17:20:51.945Z,1.75
2023-09-11T17:23:19.144Z,2.00
2023-09-11T17:25:46.794Z,1.65
2023-09-11T17:28:14.017Z,1.70
2023-09-11T17:30:41.263Z,1.30
2023-09-11T17:33:10.647Z,1.80
2023-09-11T17:35:38.838Z,2.22
2023-09-11T17:38:06.592Z,2.45
2023-09-11T17:40:33.833Z,1.95
2023-09-11T17:43:01.023Z,2.33
2023-09-11T17:45:28.281Z,2.20
2023-09-11T17:47:56.560Z,2.10
2023-09-11T17:50:25.158Z,1.85
2023-09-11T17:52:52.303Z,1.95
2023-09-11T17:55:19.555Z,1.95
2023-09-11T17:57:47.020Z,2.10
2023-09-11T18:00:14.942Z,1.48
2023-09-11T18:02:43.544Z,2.40
2023-09-11T18:05:10.885Z,2.15
2023-09-11T18:07:39.669Z,1.70
2023-09-11T18:10:07.648Z,1.70
2023-09-11T18:12:35.510Z,1.88
2023-09-11T18:15:03.103Z,1.63
2023-09-11T18:17:31.046Z,2.17
2023-09-11T18:19:58.291Z,2.00
2023-09-11T18:22:25.460Z,2.15
2023-09-11T18:24:52.728Z,2.03
2023-09-11T18:27:19.995Z,2.05
2023-09-11T18:29:47.304Z,2.30
2023-09-11T18:32:14.511Z,2.08
2023-09-11T18:34:41.838Z,2.38
2023-09-11T18:37:09.077Z,2.65
2023-09-11T18:39:36.269Z,2.15
2023-09-11T18:42:04.225Z,2.38
2023-09-11T18:44:31.466Z,2.92
2023-09-11T18:46:58.858Z,2.60
2023-09-11T18:49:27.858Z,2.08
2023-09-11T18:51:57.002Z,2.95
2023-09-11T18:54:26.177Z,2.90
2023-09-11T18:56:55.868Z,2.90
2023-09-11T18:59:23.154Z,2.83
2023-09-11T19:01:50.629Z,2.50
2023-09-11T19:04:18.665Z,2.35
2023-09-11T19:06:46.190Z,2.70
2023-09-11T19:09:13.438Z,2.50
2023-09-11T19:11:40.630Z,2.45
2023-09-11T19:14:07.892Z,2.53
2023-09-11T19:16:35.084Z,2.45
2023-09-11T19:19:02.460Z,2.38
2023-09-11T19:21:30.675Z,2.42
2023-09-11T19:23:57.953Z,2.75
2023-09-11T19:26:25.361Z,2.63
2023-09-11T19:28:53.152Z,2.53
2023-09-11T19:31:22.752Z,2.78
2023-09-11T19:33:50.811Z,2.40
2023-09-11T19:36:18.449Z,3.17
2023-09-11T19:38:46.209Z,2.90
2023-09-11T19:41:13.617Z,3.20
2023-09-11T19:43:41.345Z,3.35
2023-09-11T19:46:08.965Z,3.10
2023-09-11T19:48:37.226Z,3.30
2023-09-11T19:51:05.283Z,2.80
2023-09-11T19:53:32.520Z,3.42
2023-09-11T19:56:00.522Z,3.15
2023-09-11T19:58:29.464Z,3.45
2023-09-11T20:00:56.980Z,4.70
2023-09-11T20:03:25.690Z,3.60
2023-09-11T20:05:56.424Z,4.25
2023-09-11T20:08:23.889Z,3.42
2023-09-11T20:10:51.216Z,3.60
2023-09-11T20:13:19.264Z,3.28
2023-09-11T20:15:46.653Z,3.60
2023-09-11T20:18:14.297Z,3.20
2023-09-11T20:20:41.632Z,3.95
2023-09-11T20:23:09.206Z,3.47
2023-09-11T20:25:36.418Z,3.95
2023-09-11T20:28:03.934Z,3.30
2023-09-11T20:30:31.129Z,2.90
2023-09-11T20:32:58.552Z,3.90
2023-09-11T20:35:25.924Z,3.38
2023-09-11T20:37:53.422Z,3.22
2023-09-11T20:40:20.919Z,4.63
2023-09-11T20:42:48.117Z,3.47
2023-09-11T20:45:15.452Z,3.55
2023-09-11T20:47:42.702Z,3.97
2023-09-11T20:50:11.767Z,4.25
2023-09-11T20:52:39.034Z,4.15
2023-09-11T20:55:06.796Z,3.53
2023-09-11T20:57:34.054Z,3.25
2023-09-11T21:00:01.833Z,3.25
2023-09-11T21:02:33.612Z,3.33
2023-09-11T21:05:00.968Z,3.58
2023-09-11T21:07:28.316Z,3.10
2023-09-11T21:09:55.671Z,3.15
2023-09-11T21:12:22.959Z,2.50
2023-09-11T21:14:51.633Z,2.30
2023-09-11T21:17:19.028Z,2.75
2023-09-11T21:19:46.219Z,2.50
2023-09-11T21:22:13.417Z,2.92
2023-09-11T21:24:40.571Z,2.35
2023-09-11T21:27:07.813Z,2.83
2023-09-11T21:29:35.017Z,2.10
2023-09-11T21:32:03.712Z,2.55
2023-09-11T21:34:30.850Z,3.00
2023-09-11T21:37:00.652Z,2.75
2023-09-11T21:39:28.043Z,2.72
2023-09-11T21:41:55.281Z,2.40
2023-09-11T21:44:22.612Z,2.55
2023-09-11T21:46:49.862Z,3.10
2023-09-11T21:49:17.122Z,3.17
2023-09-11T21:51:45.045Z,3.38
2023-09-11T21:54:15.282Z,2.65
2023-09-11T21:56:44.019Z,2.33
2023-09-11T21:59:11.343Z,2.78
2023-09-11T22:01:39.531Z,2.20
2023-09-11T22:04:07.866Z,2.75
2023-09-11T22:06:35.243Z,3.30
2023-09-11T22:09:02.598Z,2.83
2023-09-11T22:11:29.895Z,2.38
2023-09-11T22:13:57.664Z,2.15
2023-09-11T22:16:24.936Z,2.78
2023-09-11T22:18:53.448Z,2.90
2023-09-11T22:21:20.766Z,2.85
2023-09-11T22:23:48.029Z,3.00
2023-09-11T22:26:15.333Z,2.72
2023-09-11T22:28:42.541Z,2.85
2023-09-11T22:31:09.882Z,3.75
2023-09-11T22:33:37.282Z,2.95
2023-09-11T22:36:05.374Z,3.20
2023-09-11T22:38:32.630Z,2.85
2023-09-11T22:40:59.833Z,3.03
2023-09-11T22:43:27.117Z,3.42
2023-09-11T22:45:54.640Z,3.83
2023-09-11T22:48:22.050Z,2.85
2023-09-11T22:50:49.336Z,3.10
2023-09-11T22:53:16.626Z,3.83
2023-09-11T22:55:45.620Z,3.75
2023-09-11T22:58:12.969Z,3.60
2023-09-11T23:00:44.644Z,2.78
2023-09-11T23:03:12.055Z,3.70
2023-09-11T23:05:39.619Z,3.10
2023-09-11T23:08:07.091Z,2.70
2023-09-11T23:10:34.337Z,3.30
2023-09-11T23:13:01.536Z,3.95
2023-09-11T23:15:30.242Z,3.08
2023-09-11T23:17:57.803Z,3.20
2023-09-11T23:20:25.779Z,2.50
2023-09-11T23:22:53.053Z,3.17
2023-09-11T23:25:20.463Z,3.35
2023-09-11T23:27:47.664Z,3.58
2023-09-11T23:30:16.234Z,3.58
2023-09-11T23:32:43.701Z,3.05
2023-09-11T23:35:11.030Z,2.78
2023-09-11T23:37:38.217Z,3.58
2023-09-11T23:40:07.429Z,3.55
2023-09-11T23:42:36.271Z,3.97
2023-09-11T23:45:03.856Z,3.08
2023-09-11T23:47:31.527Z,3.58
2023-09-11T23:49:59.344Z,3.75
2023-09-11T23:52:27.866Z,4.18
2023-09-11T23:54:55.666Z,4.93
2023-09-11T23:57:23.234Z,3.58
2023-09-11T23:59:50.572Z,4.20
